Time;durP1;ratioP1;P1;durP2;ratioP2;P2;SDS_P1;SDS_P2;PMS_P1;PMS_P2;Temp;Humidity;BMP_temperature;BMP_pressure;BME280_temperature;BME280_humidity;BME280_pressure;Samples;Min_cycle;Max_cycle;Signal;HPM_P1;HPM_P2
2023/07/16 00:01:52;;;;;;;6.35;0.90;;;17.00;99.90;;;;;;4805587;29;20129;-83
2023/07/16 00:04:18;;;;;;;4.40;0.75;;;16.90;99.90;;;;;;4806568;29;20151;-83
2023/07/16 00:06:43;;;;;;;6.18;0.80;;;17.00;99.90;;;;;;4806775;29;20176;-82
2023/07/16 00:09:09;;;;;;;3.83;1.00;;;17.00;99.90;;;;;;4806954;29;20043;-82
2023/07/16 00:11:35;;;;;;;3.90;0.80;;;16.90;99.90;;;;;;4809890;29;20094;-83
2023/07/16 00:14:01;;;;;;;4.63;0.90;;;16.90;99.90;;;;;;4825001;29;20137;-83
2023/07/16 00:16:28;;;;;;;3.10;0.70;;;16.90;99.90;;;;;;4810906;29;20058;-83
2023/07/16 00:18:53;;;;;;;3.08;0.80;;;16.80;99.90;;;;;;4806787;29;20179;-83
2023/07/16 00:21:19;;;;;;;1.10;0.80;;;16.80;99.90;;;;;;4811368;29;20103;-83
2023/07/16 00:23:45;;;;;;;6.28;1.10;;;16.70;99.90;;;;;;4824537;29;20054;-83
2023/07/16 00:26:12;;;;;;;5.82;1.50;;;16.70;99.90;;;;;;4824769;29;20058;-83
2023/07/16 00:28:38;;;;;;;3.80;0.85;;;16.70;99.90;;;;;;4823648;29;20496;-83
2023/07/16 00:31:04;;;;;;;3.60;0.90;;;16.70;99.90;;;;;;4822819;29;20125;-83
2023/07/16 00:33:29;;;;;;;4.72;1.20;;;16.70;99.90;;;;;;4819804;29;20427;-83
2023/07/16 00:35:55;;;;;;;2.35;0.95;;;16.70;99.90;;;;;;4824098;29;20445;-83
2023/07/16 00:38:21;;;;;;;6.05;1.20;;;16.70;99.90;;;;;;4824479;29;20476;-83
2023/07/16 00:40:47;;;;;;;3.20;1.00;;;16.70;99.90;;;;;;4824632;29;20093;-84
2023/07/16 00:43:14;;;;;;;5.38;0.90;;;16.70;99.90;;;;;;4821249;29;20050;-83
2023/07/16 00:45:40;;;;;;;4.18;1.00;;;16.70;99.90;;;;;;4824577;29;20058;-83
2023/07/16 00:48:06;;;;;;;6.93;1.00;;;16.70;99.90;;;;;;4815765;29;20050;-83
2023/07/16 00:50:34;;;;;;;5.97;1.17;;;16.70;99.90;;;;;;4814919;29;20488;-83
2023/07/16 00:53:03;;;;;;;4.85;0.98;;;16.70;99.90;;;;;;4821060;29;20408;-83
2023/07/16 00:55:32;;;;;;;6.28;1.67;;;16.70;99.90;;;;;;4823082;29;20195;-83
2023/07/16 00:58:04;;;;;;;8.30;1.48;;;16.70;99.90;;;;;;4824447;29;20110;-83
2023/07/16 01:00:31;;;;;;;3.53;1.00;;;16.70;99.90;;;;;;4822547;29;20127;-83
2023/07/16 01:02:57;;;;;;;3.22;0.77;;;16.60;99.90;;;;;;4807402;29;20082;-83
2023/07/16 01:05:28;;;;;;;4.75;1.00;;;16.60;99.90;;;;;;4820110;29;20074;-84
2023/07/16 01:08:01;;;;;;;6.55;1.13;;;16.50;99.90;;;;;;4823699;29;20065;-83
2023/07/16 01:10:28;;;;;;;6.47;1.02;;;16.60;99.90;;;;;;4808552;29;20046;-83
2023/07/16 01:12:56;;;;;;;12.82;1.77;;;16.60;99.90;;;;;;4804604;29;20130;-82
2023/07/16 01:15:22;;;;;;;5.95;1.00;;;16.60;99.90;;;;;;4805264;29;20412;-82
2023/07/16 01:17:48;;;;;;;4.25;1.50;;;16.60;99.90;;;;;;4816159;29;20038;-82
2023/07/16 01:20:14;;;;;;;8.48;1.63;;;16.70;99.90;;;;;;4823536;29;20050;-83
2023/07/16 01:23:04;;;;;;;9.25;1.27;;;16.70;99.90;;;;;;4824007;29;20400;-82
2023/07/16 01:25:54;;;;;;;3.10;1.23;;;16.70;99.90;;;;;;4816688;29;20050;-83
2023/07/16 01:28:54;;;;;;;4.82;0.98;;;16.70;99.90;;;;;;4805375;29;20050;-82
2023/07/16 01:31:22;;;;;;;3.85;1.00;;;16.70;99.90;;;;;;4805467;29;20066;-82
2023/07/16 01:33:50;;;;;;;5.25;1.20;;;16.60;99.90;;;;;;4806660;29;20055;-82
2023/07/16 01:36:18;;;;;;;4.78;1.00;;;16.70;99.90;;;;;;4810146;29;20047;-83
2023/07/16 01:38:45;;;;;;;6.82;1.25;;;16.70;99.90;;;;;;4823698;29;20512;-82
2023/07/16 01:41:11;;;;;;;4.07;1.10;;;16.70;99.90;;;;;;4822870;29;20472;-82
2023/07/16 01:43:36;;;;;;;3.20;1.13;;;16.70;99.90;;;;;;4823785;29;20132;-82
2023/07/16 01:46:02;;;;;;;7.20;1.30;;;16.70;99.90;;;;;;4822271;29;20117;-83
2023/07/16 01:48:35;;;;;;;3.42;0.90;;;16.80;99.90;;;;;;4821095;29;20175;-83
2023/07/16 01:51:02;;;;;;;6.00;2.17;;;16.70;99.90;;;;;;4822553;29;20416;-83
2023/07/16 01:53:28;;;;;;;5.38;1.00;;;16.80;99.90;;;;;;4823468;29;20058;-84
2023/07/16 01:55:54;;;;;;;3.88;0.90;;;16.80;99.90;;;;;;4822068;29;20058;-82
2023/07/16 01:58:19;;;;;;;6.32;1.23;;;16.80;99.90;;;;;;4806771;29;20050;-82
2023/07/16 02:00:45;;;;;;;5.43;1.13;;;16.80;99.90;;;;;;4815302;29;20574;-83
2023/07/16 02:03:11;;;;;;;5.05;1.00;;;16.80;99.90;;;;;;4809154;29;20046;-82
2023/07/16 02:05:37;;;;;;;7.03;1.35;;;16.80;99.90;;;;;;4822062;29;20117;-83
2023/07/16 02:08:03;;;;;;;5.18;1.05;;;16.70;99.90;;;;;;4820359;29;20417;-83
2023/07/16 02:10:28;;;;;;;5.43;1.30;;;16.80;99.90;;;;;;4823447;29;20042;-83
2023/07/16 02:12:54;;;;;;;3.33;0.98;;;16.70;99.90;;;;;;4824024;29;20053;-82
2023/07/16 02:15:20;;;;;;;8.38;1.08;;;16.80;99.90;;;;;;4818657;29;20501;-83
2023/07/16 02:17:47;;;;;;;6.57;0.90;;;16.80;99.90;;;;;;4813513;29;20133;-83
2023/07/16 02:20:12;;;;;;;4.20;0.70;;;16.80;99.90;;;;;;4826417;29;20110;-82
2023/07/16 02:22:38;;;;;;;3.42;0.95;;;16.70;99.90;;;;;;4825471;29;20467;-83
2023/07/16 02:25:05;;;;;;;5.35;1.15;;;16.70;99.90;;;;;;4826518;29;20492;-82
2023/07/16 02:27:30;;;;;;;3.28;0.85;;;16.70;99.90;;;;;;4826678;29;20042;-82
2023/07/16 02:29:56;;;;;;;5.10;1.00;;;16.70;99.90;;;;;;4819977;29;20049;-82
2023/07/16 02:32:22;;;;;;;4.70;0.80;;;16.70;99.90;;;;;;4808464;29;20134;-82
2023/07/16 02:34:49;;;;;;;3.88;0.98;;;16.70;99.90;;;;;;4808301;29;20054;-82
2023/07/16 02:37:14;;;;;;;4.70;0.88;;;16.70;99.90;;;;;;4814516;29;20066;-82
2023/07/16 02:39:42;;;;;;;4.65;1.17;;;16.70;99.90;;;;;;4809520;29;20428;-82
2023/07/16 02:42:08;;;;;;;3.95;1.25;;;16.70;99.90;;;;;;4825285;29;20480;-82
2023/07/16 02:44:38;;;;;;;6.25;1.20;;;16.70;99.90;;;;;;4810259;29;20404;-82
2023/07/16 02:47:04;;;;;;;2.97;0.93;;;16.70;99.90;;;;;;4824744;29;20200;-82
2023/07/16 02:49:29;;;;;;;2.63;1.08;;;16.80;99.90;;;;;;4823404;29;20528;-82
2023/07/16 02:51:55;;;;;;;2.90;1.35;;;16.70;99.90;;;;;;4825319;29;20043;-83
2023/07/16 02:54:21;;;;;;;4.05;1.30;;;16.70;99.90;;;;;;4825795;29;20068;-82
2023/07/16 02:56:47;;;;;;;6.78;1.30;;;16.70;99.90;;;;;;4826166;29;20051;-82
2023/07/16 02:59:13;;;;;;;6.65;1.20;;;16.80;99.90;;;;;;4825951;29;20492;-82
2023/07/16 03:01:38;;;;;;;3.78;1.17;;;16.70;99.90;;;;;;4824205;29;20046;-82
2023/07/16 03:04:04;;;;;;;3.80;1.52;;;16.70;99.90;;;;;;4821333;29;20046;-83
2023/07/16 03:06:30;;;;;;;4.75;1.50;;;16.70;99.90;;;;;;4807990;29;20085;-83
2023/07/16 03:08:55;;;;;;;3.38;1.30;;;16.70;99.90;;;;;;4807773;29;20054;-82
2023/07/16 03:11:21;;;;;;;3.58;1.63;;;16.70;99.90;;;;;;4813557;29;20050;-83
2023/07/16 03:13:47;;;;;;;2.63;1.30;;;16.70;99.90;;;;;;4825644;29;20063;-83
2023/07/16 03:16:12;;;;;;;4.90;1.52;;;16.70;99.90;;;;;;4818696;29;20119;-84
2023/07/16 03:18:38;;;;;;;7.32;1.50;;;16.70;99.90;;;;;;4806277;29;20043;-83
2023/07/16 03:21:04;;;;;;;6.75;1.75;;;16.80;99.90;;;;;;4807739;29;20051;-82
2023/07/16 03:23:29;;;;;;;4.13;1.40;;;16.80;99.90;;;;;;4823546;29;20107;-82
2023/07/16 03:25:55;;;;;;;2.38;1.33;;;16.80;99.90;;;;;;4825424;29;20046;-82
2023/07/16 03:28:21;;;;;;;5.20;1.30;;;16.80;99.90;;;;;;4825748;29;20051;-82
2023/07/16 03:30:48;;;;;;;7.25;2.08;;;16.70;99.90;;;;;;4822643;29;20039;-82
2023/07/16 03:33:14;;;;;;;5.00;1.90;;;16.70;99.90;;;;;;4823825;29;20088;-82
2023/07/16 03:35:46;;;;;;;8.73;1.73;;;16.80;99.90;;;;;;4823945;29;20069;-81
2023/07/16 03:38:13;;;;;;;6.72;1.98;;;16.70;99.90;;;;;;4825403;29;20074;-83
2023/07/16 03:40:39;;;;;;;8.43;1.77;;;16.70;99.90;;;;;;4825164;29;20483;-82
2023/07/16 03:43:05;;;;;;;9.27;1.50;;;16.70;99.90;;;;;;4818197;29;20386;-82
2023/07/16 03:45:31;;;;;;;5.15;1.33;;;16.70;99.90;;;;;;4808306;29;20042;-83
2023/07/16 03:47:56;;;;;;;4.30;1.55;;;16.70;99.90;;;;;;4807171;29;20054;-81
2023/07/16 03:50:22;;;;;;;6.78;1.65;;;16.60;99.90;;;;;;4810370;29;20458;-82
2023/07/16 03:52:48;;;;;;;4.93;1.25;;;16.70;99.90;;;;;;4790711;29;20080;-82
2023/07/16 03:55:14;;;;;;;6.85;1.65;;;16.60;99.90;;;;;;4807954;29;20107;-82
2023/07/16 03:57:40;;;;;;;10.02;2.15;;;16.70;99.90;;;;;;4806883;29;20043;-83
2023/07/16 04:00:09;;;;;;;4.22;1.90;;;16.80;99.90;;;;;;4806921;29;20054;-84
2023/07/16 04:02:35;;;;;;;8.95;1.95;;;16.80;99.90;;;;;;4806856;29;20459;-83
2023/07/16 04:05:01;;;;;;;5.53;2.15;;;16.80;99.90;;;;;;4808008;29;20401;-83
2023/07/16 04:07:27;;;;;;;11.35;1.65;;;16.70;99.90;;;;;;4825001;29;20046;-83
2023/07/16 04:09:53;;;;;;;4.60;1.85;;;16.70;99.90;;;;;;4824959;29;20066;-83
2023/07/16 04:12:18;;;;;;;5.00;1.55;;;16.70;99.90;;;;;;4808418;29;20058;-83
2023/07/16 04:14:44;;;;;;;5.88;1.63;;;16.70;99.90;;;;;;4822395;29;20034;-83
2023/07/16 04:17:10;;;;;;;7.72;1.85;;;16.70;99.90;;;;;;4806436;29;20556;-83
2023/07/16 04:19:35;;;;;;;6.82;2.08;;;16.70;99.90;;;;;;4806892;29;20054;-83
2023/07/16 04:22:01;;;;;;;5.60;1.70;;;16.70;99.90;;;;;;4806590;29;20099;-82
2023/07/16 04:24:27;;;;;;;6.93;2.67;;;16.70;99.90;;;;;;4806615;29;20050;-84
2023/07/16 04:26:54;;;;;;;10.52;2.25;;;16.80;99.90;;;;;;4807224;29;20038;-83
2023/07/16 04:29:19;;;;;;;8.95;2.40;;;16.90;99.90;;;;;;4805323;29;20401;-83
2023/07/16 04:31:45;;;;;;;6.85;1.83;;;16.90;99.90;;;;;;4805304;29;20050;-83
2023/07/16 04:34:11;;;;;;;7.13;2.15;;;16.90;99.90;;;;;;4805950;29;20047;-83
2023/07/16 04:36:38;;;;;;;7.93;2.15;;;16.90;99.90;;;;;;4790141;29;20046;-84
2023/07/16 04:39:04;;;;;;;8.40;2.33;;;17.00;99.90;;;;;;4806171;29;20047;-83
2023/07/16 04:41:30;;;;;;;4.70;2.03;;;16.90;99.90;;;;;;4804882;29;20054;-83
2023/07/16 04:43:56;;;;;;;6.22;2.13;;;17.00;99.90;;;;;;4806362;29;20055;-82
2023/07/16 04:46:21;;;;;;;6.32;2.35;;;16.90;99.90;;;;;;4804856;29;20081;-83
2023/07/16 04:48:47;;;;;;;6.75;2.30;;;17.00;99.90;;;;;;4806332;29;20430;-83
2023/07/16 04:51:13;;;;;;;6.78;2.35;;;17.00;99.90;;;;;;4810557;29;20386;-83
2023/07/16 04:53:39;;;;;;;6.07;1.58;;;17.10;99.90;;;;;;4822764;29;20485;-83
2023/07/16 04:56:10;;;;;;;6.00;2.05;;;17.10;99.90;;;;;;4823132;29;20054;-82
2023/07/16 04:58:35;;;;;;;5.63;2.22;;;17.20;99.90;;;;;;4822882;29;20046;-83
2023/07/16 05:01:01;;;;;;;5.40;1.83;;;17.10;99.90;;;;;;4823754;29;20142;-83
2023/07/16 05:03:27;;;;;;;8.05;2.47;;;17.10;99.90;;;;;;4814105;29;20047;-83
2023/07/16 05:05:52;;;;;;;6.80;2.70;;;17.20;99.90;;;;;;4804760;29;20053;-83
2023/07/16 05:08:18;;;;;;;6.20;2.45;;;17.40;99.90;;;;;;4806302;29;20097;-83
2023/07/16 05:10:44;;;;;;;6.95;3.05;;;17.40;99.90;;;;;;4808092;29;20050;-82
2023/07/16 05:13:09;;;;;;;6.30;2.55;;;17.40;99.90;;;;;;4806588;29;20057;-82
2023/07/16 05:15:35;;;;;;;7.00;2.83;;;17.50;99.90;;;;;;4805702;29;20043;-83
2023/07/16 05:18:00;;;;;;;7.38;2.20;;;17.50;99.90;;;;;;4805741;29;20530;-83
2023/07/16 05:20:26;;;;;;;7.78;2.53;;;17.50;99.90;;;;;;4789332;29;20049;-82
2023/07/16 05:22:52;;;;;;;8.82;2.22;;;17.50;99.90;;;;;;4805444;29;20100;-83
2023/07/16 05:25:17;;;;;;;9.25;2.88;;;17.60;99.90;;;;;;4805653;29;20067;-83
2023/07/16 05:27:43;;;;;;;7.35;2.67;;;17.70;99.90;;;;;;4805468;29;20055;-82
2023/07/16 05:30:09;;;;;;;7.93;2.65;;;17.70;99.90;;;;;;4821527;29;20053;-83
2023/07/16 05:32:35;;;;;;;8.02;3.20;;;17.90;99.90;;;;;;4817239;29;20046;-82
2023/07/16 05:35:01;;;;;;;7.10;3.40;;;17.90;99.90;;;;;;4804204;29;20055;-83
2023/07/16 05:37:27;;;;;;;5.63;2.25;;;18.00;99.90;;;;;;4805646;29;20061;-83
2023/07/16 05:39:56;;;;;;;7.82;2.15;;;18.10;99.90;;;;;;4812797;29;20095;-83
2023/07/16 05:42:21;;;;;;;6.20;2.03;;;18.10;99.90;;;;;;4822544;29;20043;-83
2023/07/16 05:44:47;;;;;;;7.50;2.63;;;18.20;99.90;;;;;;4823644;29;20053;-83
2023/07/16 05:47:13;;;;;;;8.10;1.80;;;18.20;99.90;;;;;;4824815;29;20396;-83
2023/07/16 05:49:39;;;;;;;7.97;2.22;;;18.20;99.90;;;;;;4809511;29;20053;-82
2023/07/16 05:52:05;;;;;;;7.57;2.08;;;18.40;99.90;;;;;;4814574;29;20054;-82
2023/07/16 05:54:31;;;;;;;5.47;2.08;;;18.30;99.90;;;;;;4808713;29;20061;-82
2023/07/16 05:56:57;;;;;;;6.55;2.00;;;18.20;99.90;;;;;;4825751;29;20047;-82
2023/07/16 05:59:23;;;;;;;6.95;1.83;;;18.20;99.90;;;;;;4826874;29;20050;-82
2023/07/16 06:01:49;;;;;;;5.95;2.05;;;18.30;99.90;;;;;;4827086;29;20046;-82
2023/07/16 06:04:14;;;;;;;6.00;2.05;;;18.40;99.90;;;;;;4827108;29;20202;-82
2023/07/16 06:06:40;;;;;;;4.00;1.23;;;18.40;99.90;;;;;;4825184;29;20540;-83
2023/07/16 06:09:06;;;;;;;7.85;1.92;;;18.30;99.90;;;;;;4815769;29;20442;-83
2023/07/16 06:11:31;;;;;;;8.45;2.17;;;18.30;99.90;;;;;;4808451;29;20047;-82
2023/07/16 06:13:57;;;;;;;8.50;1.70;;;18.30;99.90;;;;;;4808693;29;20101;-83
2023/07/16 06:16:23;;;;;;;5.60;1.50;;;18.40;99.90;;;;;;4809051;29;20055;-83
2023/07/16 06:18:48;;;;;;;6.15;1.92;;;18.50;99.90;;;;;;4807626;29;20078;-83
2023/07/16 06:21:14;;;;;;;5.43;1.50;;;18.50;99.90;;;;;;4809529;29;20130;-82
2023/07/16 06:23:40;;;;;;;4.30;1.83;;;18.40;99.90;;;;;;4822632;29;20054;-82
2023/07/16 06:26:06;;;;;;;6.07;1.60;;;18.50;99.90;;;;;;4826761;29;20099;-82
2023/07/16 06:28:32;;;;;;;5.65;1.90;;;18.50;99.90;;;;;;4823890;29;20500;-82
2023/07/16 06:30:58;;;;;;;3.58;1.50;;;18.70;99.90;;;;;;4825810;29;20039;-82
2023/07/16 06:33:25;;;;;;;6.45;1.55;;;18.80;99.90;;;;;;4807632;29;20070;-81
2023/07/16 06:35:51;;;;;;;4.43;1.38;;;18.90;99.90;;;;;;4808330;29;20047;-80
2023/07/16 06:38:16;;;;;;;4.85;1.50;;;18.80;99.90;;;;;;4808378;29;20442;-82
2023/07/16 06:40:49;;;;;;;4.72;1.25;;;18.70;99.90;;;;;;4808350;29;20057;-82
2023/07/16 06:43:16;;;;;;;3.85;1.63;;;18.60;99.90;;;;;;4809337;29;20075;-80
2023/07/16 06:45:42;;;;;;;8.57;1.80;;;18.60;99.90;;;;;;4808561;29;20112;-82
2023/07/16 06:48:08;;;;;;;9.02;1.85;;;18.50;99.90;;;;;;4808277;29;20102;-86
2023/07/16 06:50:34;;;;;;;4.25;1.38;;;18.60;99.90;;;;;;4807177;29;20078;-82
2023/07/16 06:52:59;;;;;;;6.63;1.77;;;18.70;99.90;;;;;;4809057;29;20111;-82
2023/07/16 06:55:25;;;;;;;4.88;1.90;;;18.70;99.90;;;;;;4807880;29;20390;-84
2023/07/16 06:57:51;;;;;;;6.78;1.60;;;18.70;99.90;;;;;;4805805;29;20065;-83
2023/07/16 07:00:17;;;;;;;8.30;1.77;;;18.80;99.90;;;;;;4808073;29;20089;-82
2023/07/16 07:02:42;;;;;;;5.50;2.10;;;18.90;99.90;;;;;;4806883;29;20077;-85
2023/07/16 07:05:08;;;;;;;4.55;1.75;;;18.90;99.90;;;;;;4807636;29;20505;-84
2023/07/16 07:07:34;;;;;;;5.05;1.80;;;18.90;99.90;;;;;;4791750;29;20084;-83
2023/07/16 07:10:00;;;;;;;7.43;2.20;;;18.90;99.90;;;;;;4807900;29;20267;-84
2023/07/16 07:12:25;;;;;;;10.00;2.13;;;18.80;99.90;;;;;;4806496;29;20050;-83
2023/07/16 07:14:51;;;;;;;6.05;2.20;;;18.80;99.90;;;;;;4812014;29;20100;-83
2023/07/16 07:17:17;;;;;;;5.93;1.80;;;18.90;99.90;;;;;;4811158;29;20054;-83
2023/07/16 07:19:43;;;;;;;4.13;1.80;;;19.00;99.90;;;;;;4825269;29;20054;-82
2023/07/16 07:22:09;;;;;;;8.02;2.08;;;19.10;99.90;;;;;;4828944;29;20042;-82
2023/07/16 07:24:34;;;;;;;6.55;2.10;;;19.20;99.90;;;;;;4839530;29;20050;-81
2023/07/16 07:27:00;;;;;;;6.53;1.75;;;19.30;99.90;;;;;;4825612;29;20046;-82
2023/07/16 07:29:26;;;;;;;4.40;1.83;;;19.40;99.90;;;;;;4825819;29;20113;-83
2023/07/16 07:31:52;;;;;;;5.13;1.88;;;19.40;99.90;;;;;;4823518;29;20050;-83
2023/07/16 07:34:18;;;;;;;6.25;2.70;;;19.50;99.90;;;;;;4825761;29;20046;-82
2023/07/16 07:36:44;;;;;;;7.25;1.88;;;19.60;99.90;;;;;;4823586;29;20050;-82
2023/07/16 07:39:10;;;;;;;6.85;1.73;;;19.60;99.90;;;;;;4824023;29;20081;-83
2023/07/16 07:41:38;;;;;;;4.32;1.95;;;19.50;99.90;;;;;;4809574;29;20108;-87
2023/07/16 07:44:03;;;;;;;4.15;2.28;;;19.40;99.90;;;;;;4807190;29;20088;-82
2023/07/16 07:46:29;;;;;;;3.40;1.70;;;19.30;99.90;;;;;;4808065;29;20038;-82
2023/07/16 07:48:55;;;;;;;7.15;2.25;;;19.20;99.90;;;;;;4806973;29;20070;-82
2023/07/16 07:51:20;;;;;;;4.20;1.83;;;19.20;99.90;;;;;;4807182;29;20135;-83
2023/07/16 07:53:46;;;;;;;7.80;2.20;;;19.30;99.90;;;;;;4807002;29;20051;-82
2023/07/16 07:56:12;;;;;;;5.05;2.42;;;19.50;99.90;;;;;;4807066;29;20058;-82
2023/07/16 07:58:38;;;;;;;5.25;2.03;;;19.60;99.90;;;;;;4807913;29;20051;-81
2023/07/16 08:01:07;;;;;;;7.10;1.90;;;19.70;99.90;;;;;;4805840;29;20103;-82
2023/07/16 08:03:33;;;;;;;10.10;2.22;;;19.70;99.90;;;;;;4806994;29;20066;-82
2023/07/16 08:05:59;;;;;;;7.35;2.10;;;19.60;99.90;;;;;;4807204;29;20061;-82
2023/07/16 08:08:25;;;;;;;7.75;2.25;;;19.60;99.90;;;;;;4807951;29;20055;-81
2023/07/16 08:10:51;;;;;;;5.03;1.80;;;19.50;99.90;;;;;;4805379;29;20426;-82
2023/07/16 08:13:16;;;;;;;3.47;1.52;;;19.50;99.90;;;;;;4807211;29;20138;-82
2023/07/16 08:15:42;;;;;;;4.15;1.80;;;19.60;99.90;;;;;;4805601;29;20416;-82
2023/07/16 08:18:08;;;;;;;7.05;1.90;;;19.80;99.90;;;;;;4807674;29;20046;-82
2023/07/16 08:20:36;;;;;;;6.25;2.03;;;19.90;99.90;;;;;;4818559;29;20054;-82
2023/07/16 08:23:02;;;;;;;5.57;1.95;;;19.80;99.90;;;;;;4823623;29;20050;-83
2023/07/16 08:25:27;;;;;;;6.95;2.42;;;19.60;99.90;;;;;;4823529;29;20054;-82
2023/07/16 08:27:53;;;;;;;5.50;2.13;;;19.60;99.90;;;;;;4824840;29;20080;-82
2023/07/16 08:30:19;;;;;;;3.00;1.42;;;19.80;99.90;;;;;;4821685;29;20103;-82
2023/07/16 08:32:44;;;;;;;4.38;1.75;;;19.60;99.90;;;;;;4823625;29;20060;-82
2023/07/16 08:35:16;;;;;;;7.05;1.85;;;19.60;99.90;;;;;;4823237;29;20046;-82
2023/07/16 08:37:45;;;;;;;4.47;1.88;;;19.70;99.90;;;;;;4824511;29;20500;-82
2023/07/16 08:40:12;;;;;;;3.50;1.85;;;19.70;99.90;;;;;;4822550;29;20115;-82
2023/07/16 08:42:39;;;;;;;7.22;2.33;;;19.70;99.90;;;;;;4824710;29;20050;-82
2023/07/16 08:45:07;;;;;;;5.78;1.85;;;19.70;99.90;;;;;;4824651;29;20047;-82
2023/07/16 08:47:35;;;;;;;6.55;2.00;;;19.50;99.90;;;;;;4824734;29;20054;-82
2023/07/16 08:50:01;;;;;;;6.65;2.08;;;19.30;99.90;;;;;;4821253;29;20065;-82
2023/07/16 08:52:27;;;;;;;6.43;2.42;;;19.30;99.90;;;;;;4822679;29;20519;-82
2023/07/16 08:54:54;;;;;;;6.40;2.47;;;19.40;99.90;;;;;;4824317;29;20183;-82
2023/07/16 08:57:21;;;;;;;6.65;2.38;;;19.40;99.90;;;;;;4823368;29;20412;-82
2023/07/16 08:59:51;;;;;;;8.32;2.15;;;19.50;99.90;;;;;;4824333;29;20050;-83
2023/07/16 09:02:20;;;;;;;7.40;2.30;;;19.70;99.90;;;;;;4821380;29;20129;-82
2023/07/16 09:04:51;;;;;;;10.43;2.50;;;19.90;99.90;;;;;;4822696;29;20513;-83
2023/07/16 09:07:17;;;;;;;6.10;2.60;;;20.00;99.90;;;;;;4824770;29;20054;-82
2023/07/16 09:09:42;;;;;;;6.55;2.38;;;20.20;99.90;;;;;;4823478;29;20046;-82
2023/07/16 09:12:12;;;;;;;5.60;2.00;;;20.40;99.90;;;;;;4822304;29;20500;-82
2023/07/16 09:14:40;;;;;;;6.82;2.30;;;20.50;99.90;;;;;;4824106;29;20054;-82
2023/07/16 09:17:05;;;;;;;5.30;2.35;;;20.70;99.90;;;;;;4824186;29;20133;-82
2023/07/16 09:19:35;;;;;;;6.82;2.03;;;20.80;99.90;;;;;;4824133;29;20121;-82
2023/07/16 09:22:01;;;;;;;6.55;2.13;;;20.80;99.90;;;;;;4821882;29;20050;-82
2023/07/16 09:24:28;;;;;;;4.47;1.70;;;20.90;99.90;;;;;;4823417;29;20087;-82
2023/07/16 09:26:58;;;;;;;10.35;2.42;;;21.00;99.90;;;;;;4822685;29;20141;-82
2023/07/16 09:29:26;;;;;;;5.28;1.90;;;21.20;99.90;;;;;;4823873;29;20377;-82
2023/07/16 09:31:56;;;;;;;6.93;2.40;;;21.40;99.90;;;;;;4824064;29;20085;-82
2023/07/16 09:34:21;;;;;;;4.53;2.13;;;21.60;99.90;;;;;;4819827;29;20054;-82
2023/07/16 09:36:49;;;;;;;4.70;1.33;;;21.70;99.90;;;;;;4822480;29;20069;-83
2023/07/16 09:39:18;;;;;;;5.47;1.65;;;21.70;99.90;;;;;;4822567;29;20532;-82
2023/07/16 09:41:45;;;;;;;7.85;1.77;;;21.40;99.90;;;;;;4824121;29;20103;-82
2023/07/16 09:44:11;;;;;;;6.07;1.80;;;21.30;99.90;;;;;;4821819;29;20090;-82
2023/07/16 09:46:37;;;;;;;5.43;1.83;;;21.20;99.90;;;;;;4823988;29;20512;-82
2023/07/16 09:49:03;;;;;;;5.32;2.03;;;21.10;99.90;;;;;;4822777;29;20087;-82
2023/07/16 09:51:32;;;;;;;5.57;2.10;;;21.20;99.90;;;;;;4823764;29;20042;-82
2023/07/16 09:54:01;;;;;;;4.80;1.80;;;21.50;99.90;;;;;;4821619;29;20051;-82
2023/07/16 09:56:37;;;;;;;2.92;1.40;;;21.60;99.90;;;;;;4822848;29;20050;-82
2023/07/16 09:59:08;;;;;;;4.53;1.40;;;21.80;99.90;;;;;;4809322;29;20043;-83
2023/07/16 10:01:40;;;;;;;6.75;2.08;;;21.80;99.90;;;;;;4805612;29;20108;-82
2023/07/16 10:04:13;;;;;;;6.30;2.03;;;21.70;99.90;;;;;;4806116;29;20390;-83
2023/07/16 10:07:26;;;;;;;6.45;1.90;;;21.70;99.90;;;;;;4803876;29;20050;-82
2023/07/16 10:09:56;;;;;;;5.10;1.73;;;21.60;99.90;;;;;;4752743;30;20055;-82
2023/07/16 10:12:26;;;;;;;3.97;1.60;;;21.70;99.90;;;;;;4767566;30;20079;-83
2023/07/16 10:14:53;;;;;;;9.07;2.47;;;21.90;99.90;;;;;;4768563;30;20064;-82
2023/07/16 10:17:23;;;;;;;2.65;1.42;;;22.00;99.90;;;;;;4752872;30;20055;-82
2023/07/16 10:19:59;;;;;;;3.53;1.67;;;22.10;99.90;;;;;;4767384;30;20070;-83
2023/07/16 10:22:41;;;;;;;9.63;1.65;;;22.40;99.90;;;;;;4752860;30;20051;-82
2023/07/16 10:25:11;;;;;;;5.85;1.33;;;22.30;99.90;;;;;;4767388;30;20047;-82
2023/07/16 10:27:39;;;;;;;7.95;1.70;;;22.30;99.90;;;;;;4768979;30;20134;-82
2023/07/16 10:30:05;;;;;;;3.13;1.90;;;22.10;99.90;;;;;;4770111;30;20486;-82
2023/07/16 10:32:32;;;;;;;2.60;1.25;;;22.00;99.90;;;;;;4785178;29;20082;-83
2023/07/16 10:34:58;;;;;;;4.88;1.50;;;21.90;99.90;;;;;;4788102;30;20047;-83
2023/07/16 10:37:25;;;;;;;4.55;1.40;;;22.00;99.90;;;;;;4786327;29;20608;-83
2023/07/16 10:39:54;;;;;;;6.32;1.60;;;22.20;99.90;;;;;;4788281;30;20055;-82
2023/07/16 10:42:21;;;;;;;2.97;1.40;;;22.50;99.90;;;;;;4788193;30;20043;-82
2023/07/16 10:44:54;;;;;;;3.42;1.27;;;22.70;99.90;;;;;;4788346;29;20522;-82
2023/07/16 10:47:25;;;;;;;4.95;1.90;;;22.60;99.70;;;;;;4797787;29;20122;-82
2023/07/16 10:49:54;;;;;;;4.80;1.60;;;22.30;99.80;;;;;;4824709;29;20065;-82
2023/07/16 10:52:23;;;;;;;4.03;1.60;;;22.00;99.90;;;;;;4825864;29;20046;-82
2023/07/16 10:54:54;;;;;;;6.10;1.63;;;21.70;99.90;;;;;;4824815;29;20042;-83
2023/07/16 10:57:21;;;;;;;3.60;1.60;;;21.60;99.90;;;;;;4823766;29;20082;-83
2023/07/16 10:59:48;;;;;;;4.13;1.73;;;21.50;99.90;;;;;;4825352;29;20061;-83
2023/07/16 11:02:16;;;;;;;3.78;1.70;;;21.50;99.90;;;;;;4826137;29;20077;-82
2023/07/16 11:04:42;;;;;;;4.55;1.60;;;21.60;99.90;;;;;;4824852;29;20050;-82
2023/07/16 11:07:11;;;;;;;8.77;1.50;;;21.80;99.90;;;;;;4825673;29;20053;-84
2023/07/16 11:09:47;;;;;;;4.53;1.33;;;21.90;99.90;;;;;;4823787;29;20046;-83
2023/07/16 11:12:15;;;;;;;4.53;1.67;;;22.00;99.90;;;;;;4824800;29;20077;-82
2023/07/16 11:14:49;;;;;;;3.80;1.60;;;22.00;99.90;;;;;;4824456;29;20420;-82
2023/07/16 11:17:15;;;;;;;7.78;1.40;;;22.10;99.90;;;;;;4825768;29;20499;-82
2023/07/16 11:19:44;;;;;;;6.38;1.52;;;22.10;99.90;;;;;;4822732;29;20086;-82
2023/07/16 11:22:10;;;;;;;4.15;1.55;;;22.00;99.90;;;;;;4824338;29;20058;-82
2023/07/16 11:24:41;;;;;;;5.60;1.90;;;21.90;99.90;;;;;;4825603;29;20056;-82
2023/07/16 11:27:19;;;;;;;4.43;1.83;;;22.00;99.90;;;;;;4824538;29;20180;-82
2023/07/16 11:29:56;;;;;;;3.80;1.35;;;21.80;99.90;;;;;;4820597;29;20050;-82
2023/07/16 11:32:42;;;;;;;4.65;1.65;;;21.90;99.90;;;;;;4807409;29;20051;-81
2023/07/16 11:35:08;;;;;;;2.92;1.33;;;22.10;99.90;;;;;;4807377;29;20043;-82
2023/07/16 11:37:35;;;;;;;4.38;1.40;;;22.30;99.90;;;;;;4807129;29;20191;-82
2023/07/16 11:40:06;;;;;;;4.78;1.35;;;22.20;99.90;;;;;;4808441;29;20055;-82
2023/07/16 11:42:34;;;;;;;4.35;1.58;;;22.10;99.90;;;;;;4807126;29;20139;-82
2023/07/16 11:45:01;;;;;;;5.95;1.35;;;22.00;99.90;;;;;;4806773;29;20042;-82
2023/07/16 11:47:27;;;;;;;7.32;1.70;;;21.90;99.90;;;;;;4807140;29;20064;-82
2023/07/16 11:49:53;;;;;;;5.38;1.33;;;21.80;99.90;;;;;;4807025;29;20093;-82
2023/07/16 11:52:21;;;;;;;4.53;1.67;;;22.00;99.90;;;;;;4805695;29;20111;-82
2023/07/16 11:54:47;;;;;;;5.95;1.42;;;22.30;99.90;;;;;;4805570;29;20058;-82
2023/07/16 11:57:13;;;;;;;7.57;1.50;;;22.60;99.90;;;;;;4806976;29;20133;-82
2023/07/16 11:59:38;;;;;;;5.65;1.30;;;22.60;99.60;;;;;;4806000;29;20142;-83
2023/07/16 12:02:04;;;;;;;2.80;1.35;;;22.50;99.90;;;;;;4819906;29;20097;-82
2023/07/16 12:04:30;;;;;;;3.45;1.10;;;22.20;99.60;;;;;;4806869;29;20051;-83
2023/07/16 12:06:55;;;;;;;5.70;1.38;;;22.20;99.90;;;;;;4819153;29;20044;-82
2023/07/16 12:09:21;;;;;;;5.30;1.33;;;22.10;99.90;;;;;;4820828;29;20042;-82
2023/07/16 12:11:47;;;;;;;3.53;1.50;;;22.20;99.90;;;;;;4813598;29;20118;-82
2023/07/16 12:14:13;;;;;;;6.57;1.80;;;22.30;99.90;;;;;;4824402;29;20084;-83
2023/07/16 12:16:38;;;;;;;5.68;1.55;;;22.30;99.90;;;;;;4806991;29;20047;-84
2023/07/16 12:19:07;;;;;;;4.18;1.80;;;22.40;99.90;;;;;;4805367;29;20053;-85
2023/07/16 12:21:33;;;;;;;5.28;1.90;;;22.30;99.90;;;;;;4816224;29;20134;-86
2023/07/16 12:23:58;;;;;;;9.15;1.92;;;22.40;99.90;;;;;;4816309;29;20074;-85
2023/07/16 12:26:24;;;;;;;4.40;1.88;;;22.60;99.90;;;;;;4805058;29;20058;-86
2023/07/16 12:28:50;;;;;;;6.18;2.00;;;22.60;99.90;;;;;;4805247;29;20066;-86
2023/07/16 12:31:17;;;;;;;5.55;1.52;;;22.40;99.90;;;;;;4805160;29;20039;-87
2023/07/16 12:33:43;;;;;;;4.85;1.55;;;22.40;99.90;;;;;;4805206;29;20055;-86
2023/07/16 12:36:09;;;;;;;8.05;2.45;;;22.30;99.90;;;;;;4790093;29;20057;-85
2023/07/16 12:38:35;;;;;;;5.07;1.70;;;22.00;99.90;;;;;;4806926;29;20449;-85
2023/07/16 12:41:00;;;;;;;4.00;1.63;;;22.00;99.90;;;;;;4805066;29;20067;-86
2023/07/16 12:43:26;;;;;;;6.03;2.00;;;22.10;99.90;;;;;;4804951;29;20064;-86
2023/07/16 12:45:52;;;;;;;7.78;2.50;;;22.20;99.90;;;;;;4820473;29;20046;-86